Time;durP1;ratioP1;P1;durP2;ratioP2;P2;SDS_P1;SDS_P2;PMS_P1;PMS_P2;Temp;Humidity;BMP_temperature;BMP_pressure;BME280_temperature;BME280_humidity;BME280_pressure;Samples;Min_cycle;Max_cycle;Signal;HPM_P1;HPM_P2
2023/01/20 00:01:46;;;;;;;9.50;2.83;;;0.90;89.30;;;;;;5012009;28;20512;-43
2023/01/20 00:04:14;;;;;;;6.57;3.00;;;0.90;89.30;;;;;;5012405;28;20045;-46
2023/01/20 00:06:41;;;;;;;6.63;2.03;;;0.90;89.50;;;;;;5011719;28;20033;-47
2023/01/20 00:09:12;;;;;;;6.32;2.10;;;0.90;89.60;;;;;;5025974;28;20022;-46
2023/01/20 00:11:39;;;;;;;8.95;3.00;;;0.80;89.50;;;;;;5027862;28;20029;-47
2023/01/20 00:14:06;;;;;;;7.07;3.05;;;0.80;89.70;;;;;;5013408;28;20022;-45
2023/01/20 00:16:33;;;;;;;6.60;2.38;;;0.80;89.80;;;;;;5016655;28;20128;-46
2023/01/20 00:19:04;;;;;;;8.50;2.35;;;0.70;89.90;;;;;;5016455;28;20025;-45
2023/01/20 00:21:30;;;;;;;6.53;2.83;;;0.80;90.10;;;;;;5016612;28;20076;-46
2023/01/20 00:23:57;;;;;;;10.63;3.10;;;0.70;90.10;;;;;;5015404;28;20121;-47
2023/01/20 00:26:24;;;;;;;6.20;2.75;;;0.80;90.20;;;;;;5035806;28;20033;-46
2023/01/20 00:28:53;;;;;;;20.95;5.00;;;0.80;90.20;;;;;;5035437;28;20048;-45
2023/01/20 00:31:24;;;;;;;8.88;2.78;;;0.80;90.10;;;;;;5034448;28;20446;-44
2023/01/20 00:33:53;;;;;;;8.60;2.80;;;0.80;90.10;;;;;;5016256;28;20030;-45
2023/01/20 00:36:25;;;;;;;7.22;3.05;;;0.70;90.00;;;;;;5015307;28;20065;-45
2023/01/20 00:38:52;;;;;;;9.23;3.58;;;0.70;90.10;;;;;;5023815;28;20072;-45
2023/01/20 00:41:19;;;;;;;7.50;3.22;;;0.70;90.20;;;;;;5030703;28;20144;-43
2023/01/20 00:43:45;;;;;;;7.97;3.35;;;0.70;90.20;;;;;;5015156;28;20018;-45
2023/01/20 00:46:12;;;;;;;7.22;2.58;;;0.70;90.40;;;;;;5016002;28;20041;-45
2023/01/20 00:48:39;;;;;;;7.90;2.72;;;0.70;90.40;;;;;;5015985;28;20041;-44
2023/01/20 00:51:07;;;;;;;6.35;3.33;;;0.80;90.40;;;;;;5032167;28;20030;-44
2023/01/20 00:53:34;;;;;;;8.35;3.35;;;0.80;90.40;;;;;;5034585;28;20026;-45
2023/01/20 00:56:00;;;;;;;5.97;2.90;;;0.80;90.50;;;;;;5023239;28;20030;-47
2023/01/20 00:58:26;;;;;;;8.95;3.10;;;0.80;90.60;;;;;;5015537;28;20344;-45
2023/01/20 01:00:54;;;;;;;5.55;2.70;;;0.90;90.60;;;;;;5015701;28;20026;-46
2023/01/20 01:03:22;;;;;;;6.70;2.65;;;0.90;90.60;;;;;;5015575;28;20108;-47
2023/01/20 01:05:47;;;;;;;6.68;2.78;;;0.90;90.60;;;;;;5016141;28;20029;-44
2023/01/20 01:08:14;;;;;;;6.18;3.00;;;0.90;90.60;;;;;;5014627;28;20041;-48
2023/01/20 01:10:41;;;;;;;5.80;2.40;;;0.90;90.60;;;;;;5035022;28;20101;-45
2023/01/20 01:13:08;;;;;;;6.20;2.28;;;0.90;90.60;;;;;;5019485;28;20052;-45
2023/01/20 01:15:34;;;;;;;8.77;2.80;;;0.90;90.70;;;;;;5015360;28;20060;-44
2023/01/20 01:18:01;;;;;;;5.47;2.65;;;0.90;90.70;;;;;;5015388;28;20336;-45
2023/01/20 01:20:29;;;;;;;6.95;2.88;;;0.90;90.70;;;;;;5014554;28;20022;-44
2023/01/20 01:22:58;;;;;;;9.57;3.67;;;0.90;90.70;;;;;;5015412;28;20034;-45
2023/01/20 01:25:25;;;;;;;6.93;3.10;;;0.90;90.60;;;;;;5018521;28;20095;-45
2023/01/20 01:27:51;;;;;;;5.15;2.83;;;0.90;90.60;;;;;;5015618;28;20038;-45
2023/01/20 01:30:17;;;;;;;4.15;2.75;;;0.90;90.60;;;;;;5021443;28;20113;-43
2023/01/20 01:32:45;;;;;;;5.45;2.97;;;0.90;90.40;;;;;;5015205;28;20022;-44
2023/01/20 01:35:12;;;;;;;5.75;2.67;;;0.80;90.40;;;;;;5029468;28;20091;-44
2023/01/20 01:37:38;;;;;;;6.90;2.58;;;0.80;90.40;;;;;;5033012;28;20029;-45
2023/01/20 01:40:06;;;;;;;6.80;4.10;;;0.80;90.30;;;;;;5032516;28;20509;-45
2023/01/20 01:42:34;;;;;;;6.95;3.00;;;0.70;90.20;;;;;;5034778;28;20490;-44
2023/01/20 01:45:11;;;;;;;6.60;2.67;;;0.60;90.40;;;;;;5029331;28;20021;-45
2023/01/20 01:47:51;;;;;;;5.05;2.80;;;0.60;90.50;;;;;;5013566;28;20420;-44
2023/01/20 01:50:44;;;;;;;5.65;2.63;;;0.60;90.50;;;;;;5019506;28;20034;-48
2023/01/20 01:53:15;;;;;;;9.68;3.10;;;0.50;90.40;;;;;;5031614;28;20033;-47
2023/01/20 01:55:47;;;;;;;6.68;3.47;;;0.50;90.40;;;;;;5032027;28;20029;-46
2023/01/20 01:58:21;;;;;;;5.43;2.38;;;0.40;90.50;;;;;;5034684;28;20025;-47
2023/01/20 02:00:48;;;;;;;4.78;2.80;;;0.40;90.60;;;;;;5030673;28;20052;-43
2023/01/20 02:03:15;;;;;;;4.15;2.63;;;0.40;90.80;;;;;;5014205;28;20053;-45
2023/01/20 02:05:42;;;;;;;4.25;2.97;;;0.40;90.80;;;;;;5013908;28;20071;-45
2023/01/20 02:08:10;;;;;;;5.75;2.97;;;0.40;90.90;;;;;;5030306;28;20552;-45
2023/01/20 02:10:36;;;;;;;6.22;2.75;;;0.40;90.90;;;;;;5022889;28;20451;-47
2023/01/20 02:13:03;;;;;;;6.90;3.67;;;0.30;91.00;;;;;;5013465;28;20116;-46
2023/01/20 02:15:58;;;;;;;4.80;3.30;;;0.30;91.00;;;;;;5007270;28;20057;-46
2023/01/20 02:18:45;;;;;;;4.93;2.70;;;0.30;91.10;;;;;;5030556;28;20037;-47
2023/01/20 02:21:42;;;;;;;8.27;3.28;;;0.30;91.20;;;;;;5014142;28;20030;-44
2023/01/20 02:24:52;;;;;;;7.00;3.80;;;0.30;91.30;;;;;;5019190;28;20404;-44
2023/01/20 02:27:30;;;;;;;4.88;3.03;;;0.30;91.20;;;;;;5027541;28;20088;-45
2023/01/20 02:30:07;;;;;;;5.03;2.72;;;0.30;91.30;;;;;;5013383;28;20018;-47
2023/01/20 02:32:49;;;;;;;7.57;3.50;;;0.30;91.40;;;;;;5014487;28;20030;-47
2023/01/20 02:35:25;;;;;;;4.63;3.00;;;0.30;91.30;;;;;;5032527;28;20034;-45
2023/01/20 02:38:26;;;;;;;7.97;3.30;;;0.30;91.40;;;;;;5033492;28;20030;-44
2023/01/20 02:41:19;;;;;;;6.05;3.20;;;0.30;91.40;;;;;;5031487;28;20163;-46
2023/01/20 02:44:05;;;;;;;6.20;3.33;;;0.30;91.60;;;;;;5013808;28;20037;-45
2023/01/20 02:47:07;;;;;;;6.53;3.67;;;0.30;91.50;;;;;;5013971;28;20371;-45
2023/01/20 02:49:44;;;;;;;5.75;3.38;;;0.30;91.60;;;;;;5026351;28;20021;-45
2023/01/20 02:52:21;;;;;;;7.55;3.17;;;0.40;91.60;;;;;;5031848;28;20478;-43
2023/01/20 02:54:51;;;;;;;4.68;2.80;;;0.40;91.60;;;;;;5031587;28;20091;-45
2023/01/20 02:57:26;;;;;;;4.43;3.03;;;0.40;91.60;;;;;;5033723;28;20087;-43
2023/01/20 02:59:58;;;;;;;9.63;3.92;;;0.40;91.60;;;;;;5013589;28;20057;-44
2023/01/20 03:02:28;;;;;;;6.63;3.35;;;0.40;91.60;;;;;;5012724;28;20040;-46
2023/01/20 03:05:11;;;;;;;4.75;3.30;;;0.40;91.60;;;;;;5013086;28;20038;-44
2023/01/20 03:07:40;;;;;;;6.88;4.07;;;0.30;91.70;;;;;;5022358;28;20439;-45
2023/01/20 03:10:13;;;;;;;4.70;2.90;;;0.30;91.60;;;;;;5033171;28;20455;-45
2023/01/20 03:12:54;;;;;;;5.72;2.78;;;0.30;91.60;;;;;;5032717;28;20026;-44
2023/01/20 03:15:25;;;;;;;7.65;3.70;;;0.30;91.70;;;;;;5027897;28;20034;-43
2023/01/20 03:17:52;;;;;;;3.72;2.63;;;0.30;91.70;;;;;;5012996;28;20033;-44
2023/01/20 03:20:19;;;;;;;8.93;3.47;;;0.30;91.70;;;;;;5012760;28;20105;-44
2023/01/20 03:22:48;;;;;;;6.28;3.55;;;0.30;91.70;;;;;;5013193;28;20092;-46
2023/01/20 03:25:19;;;;;;;7.68;3.90;;;0.30;91.80;;;;;;5027473;28;20037;-48
2023/01/20 03:27:47;;;;;;;5.70;3.10;;;0.20;91.70;;;;;;5013295;28;20379;-47
2023/01/20 03:30:16;;;;;;;6.70;3.95;;;0.30;91.80;;;;;;5013243;28;20041;-47
2023/01/20 03:32:47;;;;;;;4.85;3.45;;;0.20;91.70;;;;;;5013545;28;20048;-46
2023/01/20 03:35:15;;;;;;;5.38;2.63;;;0.20;91.70;;;;;;5013117;28;20018;-47
2023/01/20 03:37:42;;;;;;;8.98;5.68;;;0.20;91.70;;;;;;5029465;28;20454;-46
2023/01/20 03:40:11;;;;;;;4.65;2.88;;;0.20;91.80;;;;;;5031037;28;20104;-46
2023/01/20 03:43:01;;;;;;;5.60;3.65;;;0.20;91.70;;;;;;5031647;28;20029;-48
2023/01/20 03:45:49;;;;;;;7.18;3.95;;;0.20;91.60;;;;;;5013367;28;20081;-44
2023/01/20 03:48:41;;;;;;;5.43;3.13;;;0.20;91.60;;;;;;5019787;28;20056;-48
2023/01/20 03:51:28;;;;;;;6.40;3.88;;;0.20;91.60;;;;;;5034475;28;20034;-47
2023/01/20 03:54:21;;;;;;;6.60;3.92;;;0.10;91.60;;;;;;5019604;28;20041;-44
2023/01/20 03:57:02;;;;;;;8.52;4.30;;;0.10;91.70;;;;;;5018109;28;20042;-47
2023/01/20 03:59:34;;;;;;;8.88;5.50;;;0.10;91.70;;;;;;5017185;28;20026;-45
2023/01/20 04:02:07;;;;;;;9.30;5.70;;;0.10;91.90;;;;;;5017101;28;20037;-46
2023/01/20 04:04:38;;;;;;;9.65;6.50;;;0.10;91.90;;;;;;5019675;28;20045;-45
2023/01/20 04:07:13;;;;;;;10.00;6.13;;;0.10;91.90;;;;;;5035045;28;20128;-47
2023/01/20 04:09:47;;;;;;;12.02;8.27;;;0.10;92.00;;;;;;5024419;28;20024;-44
2023/01/20 04:12:14;;;;;;;10.98;6.28;;;0.10;92.10;;;;;;5029611;28;20109;-47
2023/01/20 04:14:41;;;;;;;11.65;7.00;;;0.10;92.10;;;;;;5031252;28;20447;-45
2023/01/20 04:17:08;;;;;;;11.95;7.07;;;0.10;92.20;;;;;;5036071;28;20036;-43
2023/01/20 04:19:35;;;;;;;14.68;7.85;;;0.20;92.30;;;;;;5034000;28;20048;-44
2023/01/20 04:22:11;;;;;;;13.10;8.45;;;0.20;92.30;;;;;;5032463;28;20026;-46
2023/01/20 04:25:01;;;;;;;13.73;8.85;;;0.20;92.30;;;;;;5021793;28;20116;-48
2023/01/20 04:27:32;;;;;;;16.83;9.38;;;0.20;92.40;;;;;;5036154;28;20022;-44
2023/01/20 04:29:59;;;;;;;11.18;8.40;;;0.20;92.40;;;;;;5027210;28;20018;-44
2023/01/20 04:32:26;;;;;;;11.68;8.00;;;0.20;92.50;;;;;;5016491;28;20088;-47
2023/01/20 04:34:52;;;;;;;14.63;9.52;;;0.20;92.60;;;;;;5016145;28;20038;-46
2023/01/20 04:37:18;;;;;;;14.00;8.68;;;0.20;92.60;;;;;;5015228;28;20026;-43
2023/01/20 04:39:45;;;;;;;12.48;8.00;;;0.30;92.70;;;;;;5023651;28;20059;-44
2023/01/20 04:42:12;;;;;;;15.52;9.50;;;0.30;92.70;;;;;;5035930;28;20036;-45
2023/01/20 04:44:39;;;;;;;16.52;8.80;;;0.30;92.60;;;;;;5035918;28;20029;-45
2023/01/20 04:47:05;;;;;;;14.20;9.23;;;0.30;92.70;;;;;;5033674;28;20025;-45
2023/01/20 04:49:34;;;;;;;14.57;9.55;;;0.30;92.60;;;;;;5016148;28;20077;-45
2023/01/20 04:51:59;;;;;;;14.13;9.77;;;0.40;92.70;;;;;;5016041;28;20022;-45
2023/01/20 04:54:26;;;;;;;16.08;9.88;;;0.30;92.70;;;;;;5023046;28;20033;-46
2023/01/20 04:56:52;;;;;;;14.32;9.68;;;0.40;92.70;;;;;;5035702;28;20029;-51
2023/01/20 04:59:19;;;;;;;17.60;11.10;;;0.40;92.70;;;;;;5023663;28;20038;-49
2023/01/20 05:01:44;;;;;;;13.68;9.48;;;0.30;92.60;;;;;;5014727;28;20033;-43
2023/01/20 05:04:11;;;;;;;13.73;9.60;;;0.40;92.60;;;;;;5016634;28;20042;-47
2023/01/20 05:06:41;;;;;;;13.27;9.07;;;0.30;92.60;;;;;;5035591;28;20061;-45
2023/01/20 05:09:14;;;;;;;12.90;9.73;;;0.40;92.70;;;;;;5032085;28;20041;-44
2023/01/20 05:11:39;;;;;;;14.15;10.00;;;0.40;92.60;;;;;;5035541;28;20033;-44
2023/01/20 05:14:07;;;;;;;19.15;10.35;;;0.40;92.50;;;;;;5034460;28;20055;-45
2023/01/20 05:16:33;;;;;;;14.07;10.32;;;0.30;92.60;;;;;;5028596;28;20026;-47
2023/01/20 05:19:00;;;;;;;15.55;9.65;;;0.40;92.60;;;;;;5015343;28;20038;-44
2023/01/20 05:21:27;;;;;;;14.20;10.10;;;0.30;92.60;;;;;;5015659;28;20034;-50
2023/01/20 05:23:55;;;;;;;12.85;9.77;;;0.40;92.60;;;;;;5023138;28;20455;-46
2023/01/20 05:26:23;;;;;;;16.58;10.32;;;0.40;92.70;;;;;;5034871;28;20045;-44
2023/01/20 05:28:49;;;;;;;16.02;11.38;;;0.40;92.60;;;;;;5023576;28;20034;-44
2023/01/20 05:31:18;;;;;;;14.98;11.30;;;0.40;92.70;;;;;;5024386;28;20033;-49
2023/01/20 05:33:45;;;;;;;17.67;10.20;;;0.40;92.60;;;;;;5035175;28;20382;-48
2023/01/20 05:36:11;;;;;;;16.27;10.60;;;0.40;92.60;;;;;;5012999;28;20505;-45
2023/01/20 05:38:41;;;;;;;17.08;10.93;;;0.30;92.50;;;;;;5015214;28;20363;-45
2023/01/20 05:41:09;;;;;;;17.63;10.20;;;0.30;92.60;;;;;;5026570;28;20040;-44
2023/01/20 05:43:36;;;;;;;14.82;10.55;;;0.30;92.60;;;;;;5034854;28;20026;-45
2023/01/20 05:46:03;;;;;;;17.98;11.20;;;0.30;92.70;;;;;;5034447;28;20022;-47
2023/01/20 05:48:31;;;;;;;16.23;10.35;;;0.30;92.80;;;;;;5034448;28;20022;-46
2023/01/20 05:50:58;;;;;;;18.92;10.70;;;0.30;92.70;;;;;;5024099;28;20101;-43
2023/01/20 05:53:27;;;;;;;16.55;10.65;;;0.40;92.70;;;;;;5015060;28;20108;-47
2023/01/20 05:56:02;;;;;;;14.68;11.40;;;0.40;92.80;;;;;;5028652;28;20091;-45
2023/01/20 05:58:30;;;;;;;13.82;9.75;;;0.40;92.70;;;;;;5031562;28;20042;-47
2023/01/20 06:01:09;;;;;;;17.40;9.98;;;0.40;92.80;;;;;;5032937;28;20048;-46
2023/01/20 06:03:37;;;;;;;17.00;9.55;;;0.40;92.60;;;;;;5032106;28;20025;-45
2023/01/20 06:06:06;;;;;;;14.82;10.35;;;0.40;92.70;;;;;;5033619;28;20041;-48
2023/01/20 06:08:34;;;;;;;16.60;11.48;;;0.40;92.80;;;;;;5029355;28;20026;-45
2023/01/20 06:11:01;;;;;;;15.77;10.77;;;0.40;92.80;;;;;;5027897;28;20036;-45
2023/01/20 06:13:28;;;;;;;14.10;10.45;;;0.40;92.80;;;;;;5028749;28;20478;-43
2023/01/20 06:15:56;;;;;;;15.43;10.32;;;0.40;92.70;;;;;;5014533;28;20531;-46
2023/01/20 06:18:23;;;;;;;16.73;11.77;;;0.40;92.70;;;;;;5014427;28;20061;-44
2023/01/20 06:20:50;;;;;;;15.45;11.82;;;0.40;92.70;;;;;;5014558;28;20029;-47
2023/01/20 06:23:17;;;;;;;14.93;10.35;;;0.40;92.70;;;;;;5013257;28;20367;-45
2023/01/20 06:25:44;;;;;;;16.40;11.38;;;0.40;92.70;;;;;;5027634;28;20428;-44
2023/01/20 06:28:11;;;;;;;17.48;11.43;;;0.40;92.80;;;;;;5031155;28;20022;-48
2023/01/20 06:30:42;;;;;;;15.88;10.35;;;0.40;92.70;;;;;;5033670;28;20022;-44
2023/01/20 06:33:09;;;;;;;15.05;10.63;;;0.40;92.70;;;;;;5032101;28;20033;-45
2023/01/20 06:35:36;;;;;;;17.02;11.38;;;0.40;92.60;;;;;;5030621;28;20021;-47
2023/01/20 06:38:02;;;;;;;14.10;10.32;;;0.50;92.70;;;;;;5033141;28;20532;-44
2023/01/20 06:40:29;;;;;;;14.05;9.38;;;0.40;92.60;;;;;;5032944;28;20041;-45
2023/01/20 06:42:57;;;;;;;19.30;11.80;;;0.50;92.60;;;;;;5032524;28;20044;-45
2023/01/20 06:45:24;;;;;;;15.57;11.00;;;0.40;92.60;;;;;;5019839;28;20531;-43
2023/01/20 06:47:51;;;;;;;16.45;9.88;;;0.40;92.50;;;;;;5014055;28;20087;-43
2023/01/20 06:50:18;;;;;;;15.65;11.20;;;0.40;92.60;;;;;;5013955;28;20068;-45
2023/01/20 06:52:44;;;;;;;17.38;12.93;;;0.40;92.60;;;;;;5013963;28;20025;-44
2023/01/20 06:55:11;;;;;;;16.90;13.13;;;0.40;92.50;;;;;;5023020;28;20443;-44
2023/01/20 06:57:38;;;;;;;18.05;10.77;;;0.40;92.60;;;;;;5033161;28;20037;-44
2023/01/20 07:00:05;;;;;;;16.40;11.75;;;0.40;92.60;;;;;;5031573;28;20044;-45
2023/01/20 07:02:32;;;;;;;16.83;11.35;;;0.40;92.60;;;;;;5030474;28;20115;-43
2023/01/20 07:04:59;;;;;;;17.98;11.75;;;0.40;92.60;;;;;;5013207;28;20084;-43
2023/01/20 07:07:26;;;;;;;17.55;11.75;;;0.40;92.60;;;;;;5012816;28;20022;-43
2023/01/20 07:09:56;;;;;;;19.08;12.13;;;0.40;92.60;;;;;;5017045;28;20069;-45
2023/01/20 07:12:22;;;;;;;16.50;13.20;;;0.40;92.60;;;;;;5027304;28;20470;-44
2023/01/20 07:14:51;;;;;;;19.15;12.90;;;0.50;92.60;;;;;;5013566;28;20026;-45
2023/01/20 07:17:18;;;;;;;22.58;13.88;;;0.40;92.50;;;;;;5013633;28;20030;-44
2023/01/20 07:19:45;;;;;;;24.35;13.25;;;0.40;92.50;;;;;;5013465;28;20104;-46
2023/01/20 07:22:12;;;;;;;21.27;13.50;;;0.50;92.60;;;;;;5013537;28;20048;-45
2023/01/20 07:24:40;;;;;;;19.70;13.45;;;0.50;92.60;;;;;;5017337;28;20029;-44
2023/01/20 07:27:07;;;;;;;21.23;14.30;;;0.40;92.40;;;;;;5032547;28;20021;-45
2023/01/20 07:29:34;;;;;;;18.48;13.43;;;0.40;92.40;;;;;;5015412;28;20344;-47
2023/01/20 07:32:00;;;;;;;17.73;12.52;;;0.40;92.50;;;;;;5012742;28;20076;-43
2023/01/20 07:34:29;;;;;;;22.58;13.63;;;0.40;92.40;;;;;;5013377;28;20066;-44
2023/01/20 07:36:56;;;;;;;19.92;13.65;;;0.50;92.30;;;;;;5013302;28;20033;-48
2023/01/20 07:39:23;;;;;;;19.40;13.27;;;0.40;92.20;;;;;;5013825;28;20061;-43
2023/01/20 07:41:50;;;;;;;20.67;12.40;;;0.40;92.30;;;;;;5028649;28;20040;-44
2023/01/20 07:44:16;;;;;;;19.17;12.95;;;0.40;92.20;;;;;;5032420;28;20079;-44
2023/01/20 07:46:43;;;;;;;18.67;13.13;;;0.40;92.30;;;;;;5014676;28;20036;-46
2023/01/20 07:49:10;;;;;;;20.02;13.23;;;0.40;92.30;;;;;;5030298;28;20025;-44
2023/01/20 07:51:38;;;;;;;19.60;13.02;;;0.40;92.20;;;;;;5030253;28;20091;-46
2023/01/20 07:54:05;;;;;;;18.80;13.57;;;0.40;92.30;;;;;;5032669;28;20034;-44
2023/01/20 07:56:32;;;;;;;18.52;12.13;;;0.40;92.20;;;;;;5031403;28;20033;-44
2023/01/20 07:59:03;;;;;;;18.50;13.50;;;0.40;92.30;;;;;;5032826;28;20025;-47
2023/01/20 08:01:31;;;;;;;19.40;13.25;;;0.40;92.20;;;;;;5022996;28;20029;-45
2023/01/20 08:04:02;;;;;;;18.80;13.00;;;0.40;92.10;;;;;;5011917;28;20464;-46
2023/01/20 08:06:29;;;;;;;20.02;13.43;;;0.40;92.10;;;;;;5024029;28;20463;-46
2023/01/20 08:08:59;;;;;;;19.85;13.75;;;0.30;92.10;;;;;;5032069;28;20014;-47
2023/01/20 08:11:28;;;;;;;20.73;14.77;;;0.40;92.30;;;;;;5031891;28;20029;-48
2023/01/20 08:13:55;;;;;;;19.57;13.37;;;0.40;92.20;;;;;;5027167;28;20448;-48
2023/01/20 08:16:21;;;;;;;20.98;14.25;;;0.40;92.10;;;;;;5012613;28;20722;-44
2023/01/20 08:18:47;;;;;;;19.58;12.55;;;0.50;92.10;;;;;;5025279;28;20030;-44
2023/01/20 08:21:41;;;;;;;21.70;15.55;;;0.50;92.20;;;;;;5026928;28;20502;-48
2023/01/20 08:24:11;;;;;;;21.38;14.32;;;0.50;92.10;;;;;;5014065;28;20050;-48
2023/01/20 08:26:40;;;;;;;20.77;14.48;;;0.50;92.10;;;;;;5030436;28;20021;-45
2023/01/20 08:29:09;;;;;;;25.33;16.67;;;0.60;92.10;;;;;;5027528;28;20037;-46
2023/01/20 08:31:35;;;;;;;17.45;12.18;;;0.60;92.20;;;;;;5027955;28;20040;-45
2023/01/20 08:34:05;;;;;;;19.60;13.93;;;0.60;92.10;;;;;;5031778;28;20033;-44
2023/01/20 08:36:33;;;;;;;19.52;14.23;;;0.60;91.90;;;;;;5030669;28;20057;-44
2023/01/20 08:39:02;;;;;;;19.33;12.30;;;0.70;91.90;;;;;;5029031;28;20040;-48
2023/01/20 08:41:32;;;;;;;19.90;14.77;;;0.60;91.90;;;;;;5036011;28;20485;-45
2023/01/20 08:44:00;;;;;;;19.58;13.10;;;0.70;91.90;;;;;;5034266;28;20033;-48
2023/01/20 08:46:28;;;;;;;21.87;14.00;;;0.70;91.80;;;;;;5034667;28;20021;-47
2023/01/20 08:48:56;;;;;;;19.05;12.55;;;0.70;91.70;;;;;;5035152;28;20029;-44
2023/01/20 08:51:27;;;;;;;19.13;13.23;;;0.70;91.60;;;;;;5032133;28;20116;-44
2023/01/20 08:53:54;;;;;;;18.98;12.65;;;0.70;91.60;;;;;;5034908;28;20333;-44
2023/01/20 08:56:21;;;;;;;23.33;14.10;;;0.60;91.50;;;;;;5033913;28;20037;-45
2023/01/20 08:58:48;;;;;;;18.10;13.05;;;0.70;91.50;;;;;;5025452;28;20029;-48
2023/01/20 09:01:19;;;;;;;19.63;13.32;;;0.70;91.50;;;;;;5021368;28;20355;-47
2023/01/20 09:03:45;;;;;;;17.27;12.07;;;0.70;91.50;;;;;;5035307;28;20044;-44
2023/01/20 09:06:13;;;;;;;23.15;14.27;;;0.70;91.30;;;;;;5028275;28;20077;-45
2023/01/20 09:08:40;;;;;;;20.40;14.23;;;0.70;91.20;;;;;;5018398;28;20049;-49
2023/01/20 09:11:12;;;;;;;20.38;13.73;;;0.70;91.40;;;;;;5022576;28;20037;-46
2023/01/20 09:13:41;;;;;;;22.25;14.68;;;0.80;91.50;;;;;;5022733;28;20036;-46
2023/01/20 09:16:10;;;;;;;;;;;0.90;91.50;;;;;;5034828;28;20375;-45
2023/01/20 09:18:37;;;;;;;22.10;14.20;;;0.90;91.30;;;;;;5020132;28;20220;-47
2023/01/20 09:21:05;;;;;;;24.92;16.08;;;0.90;91.20;;;;;;5015827;28;20269;-44
2023/01/20 09:23:34;;;;;;;19.33;14.00;;;0.90;91.30;;;;;;5023070;28;20423;-45
2023/01/20 09:26:05;;;;;;;20.80;13.80;;;1.00;91.30;;;;;;5031286;28;20029;-48
2023/01/20 09:28:31;;;;;;;24.35;14.68;;;1.00;91.30;;;;;;5015969;28;20056;-44
2023/01/20 09:31:05;;;;;;;22.55;14.43;;;1.00;91.30;;;;;;5014910;28;20424;-46
2023/01/20 09:33:34;;;;;;;21.40;14.50;;;0.90;90.90;;;;;;5015212;28;20607;-45
2023/01/20 09:36:02;;;;;;;;;;;0.90;91.00;;;;;;5018248;28;20052;-46
2023/01/20 09:44:40;;;;;;;23.00;15.43;;;0.90;90.80;;;;;;5019508;28;20426;-47
2023/01/20 09:47:20;;;;;;;23.13;14.38;;;0.90;91.00;;;;;;5014501;28;20087;-45
2023/01/20 09:53:16;;;;;;;18.35;13.10;;;0.90;91.10;;;;;;5015050;28;20048;-47
2023/01/20 09:55:55;;;;;;;22.90;13.43;;;0.80;90.80;;;;;;5031578;28;20053;-44
2023/01/20 09:58:47;;;;;;;18.38;11.73;;;0.80;90.90;;;;;;5014223;28;20034;-44
2023/01/20 10:01:19;;;;;;;19.35;12.82;;;0.80;90.90;;;;;;5019929;28;20144;-45
2023/01/20 10:03:58;;;;;;;18.40;12.98;;;0.90;91.20;;;;;;5033102;28;20442;-47
2023/01/20 10:06:43;;;;;;;19.83;14.27;;;0.90;91.20;;;;;;5027121;28;20034;-46
2023/01/20 10:09:36;;;;;;;22.80;13.23;;;1.00;91.20;;;;;;5024970;28;20037;-44
2023/01/20 10:12:32;;;;;;;20.15;12.90;;;1.10;91.10;;;;;;5013799;28;20053;-48
2023/01/20 10:15:08;;;;;;;21.10;13.00;;;1.10;91.00;;;;;;5014869;28;20022;-42
2023/01/20 10:17:55;;;;;;;24.20;13.60;;;1.10;90.70;;;;;;5013458;28;20033;-45
2023/01/20 10:20:46;;;;;;;21.73;13.57;;;1.20;90.80;;;;;;5014281;28;20132;-44
2023/01/20 10:23:50;;;;;;;20.70;13.45;;;1.20;90.50;;;;;;5030912;28;20371;-44
2023/01/20 10:26:31;;;;;;;19.05;12.52;;;1.30;90.50;;;;;;5017025;28;20132;-47
2023/01/20 10:29:35;;;;;;;20.08;13.60;;;1.30;90.20;;;;;;5014482;28;20113;-49
2023/01/20 10:32:11;;;;;;;19.70;12.40;;;1.40;90.00;;;;;;5012762;28;20073;-43
2023/01/20 10:34:45;;;;;;;21.35;13.60;;;1.40;89.70;;;;;;5014373;28;20424;-46
2023/01/20 10:37:14;;;;;;;19.23;13.57;;;1.40;89.70;;;;;;5013279;28;20125;-43
2023/01/20 10:40:31;;;;;;;19.65;14.07;;;1.40;89.30;;;;;;5023221;28;20041;-45
2023/01/20 10:43:00;;;;;;;19.08;11.98;;;1.40;89.30;;;;;;5025866;28;20080;-47
2023/01/20 10:46:03;;;;;;;20.17;14.18;;;1.40;89.10;;;;;;5033220;28;20048;-47
2023/01/20 10:48:47;;;;;;;19.65;12.60;;;1.40;89.20;;;;;;5026640;28;20038;-45
2023/01/20 10:51:36;;;;;;;19.70;12.20;;;1.40;89.40;;;;;;5014020;28;20025;-48
2023/01/20 10:54:36;;;;;;;19.02;13.20;;;1.40;89.20;;;;;;5027032;28;20509;-44
2023/01/20 10:57:05;;;;;;;19.67;12.73;;;1.30;89.10;;;;;;5029572;28;20064;-43
2023/01/20 10:59:54;;;;;;;19.90;12.48;;;1.30;89.10;;;;;;5013170;28;20044;-43
2023/01/20 11:02:29;;;;;;;21.15;12.93;;;1.40;89.30;;;;;;5013949;28;20026;-42
2023/01/20 11:05:17;;;;;;;21.80;12.55;;;1.40;89.00;;;;;;5018640;28;20033;-45
2023/01/20 11:07:45;;;;;;;21.17;12.85;;;1.50;89.20;;;;;;5015206;28;20529;-44
2023/01/20 11:10:17;;;;;;;23.67;14.15;;;1.60;89.20;;;;;;5032743;28;20044;-44
2023/01/20 11:12:47;;;;;;;22.90;13.57;;;1.70;89.20;;;;;;5024598;28;20041;-44
2023/01/20 11:15:32;;;;;;;21.00;13.45;;;1.80;89.10;;;;;;5031871;28;20025;-48
2023/01/20 11:18:16;;;;;;;24.33;13.63;;;1.90;88.80;;;;;;5032335;28;20018;-44
2023/01/20 11:21:11;;;;;;;18.33;13.13;;;1.80;88.30;;;;;;5013431;28;20037;-44
2023/01/20 11:23:56;;;;;;;18.45;12.82;;;1.80;88.20;;;;;;5024335;28;20092;-48
2023/01/20 11:26:29;;;;;;;21.88;14.20;;;1.80;88.30;;;;;;5030019;28;20029;-44
2023/01/20 11:29:10;;;;;;;17.55;12.00;;;1.90;88.60;;;;;;5013411;28;20164;-44
2023/01/20 11:31:47;;;;;;;19.40;12.15;;;1.90;88.20;;;;;;5023125;28;20052;-45
2023/01/20 11:34:32;;;;;;;21.77;15.80;;;2.00;88.10;;;;;;5033062;28;20022;-46
2023/01/20 11:37:16;;;;;;;23.05;13.18;;;1.90;88.00;;;;;;5022079;28;20033;-47
2023/01/20 11:40:19;;;;;;;19.20;12.52;;;2.00;87.70;;;;;;5031010;28;20064;-43
2023/01/20 11:42:48;;;;;;;18.52;12.98;;;2.00;87.40;;;;;;5030178;28;20477;-45
2023/01/20 11:45:28;;;;;;;22.45;13.48;;;2.10;87.60;;;;;;5030996;28;20497;-44
2023/01/20 11:48:12;;;;;;;19.95;13.55;;;2.10;87.60;;;;;;5033257;28;20041;-46
2023/01/20 11:50:49;;;;;;;19.85;12.82;;;2.20;87.90;;;;;;5027171;28;20022;-46
2023/01/20 11:53:30;;;;;;;18.15;12.38;;;2.20;87.40;;;;;;5022684;28;20029;-45
2023/01/20 11:56:25;;;;;;;19.83;13.68;;;2.30;87.60;;;;;;5031877;28;20060;-44
2023/01/20 11:59:00;;;;;;;17.98;12.25;;;2.30;87.30;;;;;;5026376;28;20502;-45
2023/01/20 12:01:29;;;;;;;19.02;13.23;;;2.40;87.20;;;;;;5016603;28;20488;-46
2023/01/20 12:04:07;;;;;;;19.63;13.00;;;2.40;87.10;;;;;;5031172;28;20045;-45
2023/01/20 12:06:53;;;;;;;20.65;13.75;;;2.40;87.00;;;;;;5013027;28;20113;-47
2023/01/20 12:09:29;;;;;;;17.42;11.95;;;2.40;86.50;;;;;;5029509;28;20443;-47
2023/01/20 12:12:40;;;;;;;17.95;12.98;;;2.40;85.90;;;;;;5035396;28;20037;-45
2023/01/20 12:15:31;;;;;;;21.85;12.70;;;2.40;86.40;;;;;;5015034;28;20054;-46
2023/01/20 12:18:23;;;;;;;18.77;12.00;;;2.30;86.20;;;;;;5033070;28;20400;-47
2023/01/20 12:21:16;;;;;;;19.80;13.88;;;2.30;86.30;;;;;;5031441;28;20030;-45
2023/01/20 12:24:06;;;;;;;19.73;12.48;;;2.20;86.20;;;;;;5032016;28;20025;-45
2023/01/20 12:26:33;;;;;;;;;;;2.30;86.10;;;;;;5018795;28;20025;-44
2023/01/20 12:29:16;;;;;;;17.90;11.88;;;2.30;85.80;;;;;;5034424;28;20295;-47
2023/01/20 12:31:44;;;;;;;22.08;13.18;;;2.40;86.30;;;;;;5031102;28;20095;-45
2023/01/20 12:34:22;;;;;;;24.23;14.88;;;2.40;86.20;;;;;;5016481;28;20164;-48
2023/01/20 12:37:18;;;;;;;22.45;15.10;;;2.40;86.00;;;;;;5029743;28;20034;-48
2023/01/20 12:39:55;;;;;;;20.70;14.15;;;2.40;86.20;;;;;;5034274;28;20051;-45
2023/01/20 12:42:47;;;;;;;20.05;13.38;;;2.40;85.90;;;;;;5025586;28;20320;-45
2023/01/20 12:45:48;;;;;;;22.05;13.95;;;2.40;86.10;;;;;;5022975;28;20458;-45
2023/01/20 12:48:36;;;;;;;22.23;15.40;;;2.50;85.90;;;;;;5035076;28;20033;-46
2023/01/20 12:51:19;;;;;;;22.88;14.63;;;2.50;85.60;;;;;;5021058;28;20021;-45
2023/01/20 12:53:56;;;;;;;22.85;15.23;;;2.60;85.70;;;;;;5035420;28;20039;-47
2023/01/20 12:56:59;;;;;;;23.45;14.77;;;2.60;85.50;;;;;;5030436;28;20037;-47
2023/01/20 12:59:42;;;;;;;22.48;14.35;;;2.60;85.60;;;;;;5015945;28;20108;-45
2023/01/20 13:02:46;;;;;;;21.33;15.13;;;2.50;85.20;;;;;;5016221;28;20054;-47
2023/01/20 13:05:51;;;;;;;21.38;14.23;;;2.50;84.90;;;;;;5016207;28;20042;-48
2023/01/20 13:08:36;;;;;;;22.45;13.95;;;2.40;85.00;;;;;;5031824;28;20041;-46
2023/01/20 13:11:31;;;;;;;22.67;15.05;;;2.40;85.30;;;;;;5031880;28;20022;-47
2023/01/20 13:14:39;;;;;;;23.13;14.43;;;2.40;85.80;;;;;;5022251;28;20486;-49
2023/01/20 13:17:29;;;;;;;21.98;15.10;;;2.40;86.00;;;;;;5024454;28;20045;-49
2023/01/20 13:20:03;;;;;;;21.42;15.43;;;2.40;85.60;;;;;;5035594;28;20340;-48
2023/01/20 13:22:30;;;;;;;25.15;16.05;;;2.40;85.60;;;;;;5032708;28;20458;-46
2023/01/20 13:25:03;;;;;;;24.15;14.90;;;2.40;85.20;;;;;;5022011;28;20042;-45
2023/01/20 13:27:36;;;;;;;22.42;14.45;;;2.30;85.70;;;;;;5015444;28;20022;-50
2023/01/20 13:30:08;;;;;;;23.48;16.80;;;2.40;86.00;;;;;;5015569;28;20432;-45